No1 Tokuyama — JK5318 — position and weather

sailwx.info

Track history (hours):
 
Tides and Currents Weather Stations Pressure Air Temp Water Temp Dewpoint Dewpoint Depression Visibility Wind Speed Wind Dir Waves Ship Positions

No1 Tokuyama

Last reported at 2014-Sep-21 16:29 UTC. Time now 2014-Sep-23 04:27 UTC.
Position N 33°50' E 132°23'.

Length 110 m; draft 5.4 m.

Type: Cargo ship. MMSI: 431400487.

Date/timePositionNaut miles runAvg speedWind from/ knotsBaromVisibWave heightAir tempDewpointWater temp
2014-Sep-21 16:29N 33°50' E 132°23'1614.9
2014-Sep-21 15:25N 33°56' E 132°40'10611.9
2014-Sep-21 06:33N 34°06' E 134°48'24912.2
2014-Sep-20 10:06N 35°06' E 139°41'814.1
2014-Sep-20 09:33N 35°12' E 139°46'1312.6
2014-Sep-20 08:34N 35°24' E 139°43'6 5.5
2014-Sep-20 07:33N 35°30' E 139°44'0 0.0
2014-Sep-20 06:32N 35°30' E 139°44'0 0.0
2014-Sep-20 05:32N 35°30' E 139°44'0 0.0
2014-Sep-20 04:32N 35°30' E 139°44'0 0.0
2014-Sep-20 03:32N 35°30' E 139°44'0 0.0
2014-Sep-20 02:32N 35°30' E 139°44'0 0.0
2014-Sep-20 01:32N 35°30' E 139°44'0 0.0
2014-Sep-20 00:32N 35°30' E 139°44'1 0.6
2014-Sep-19 23:33N 35°30' E 139°43'3 3.1
2014-Sep-19 22:33N 35°27' E 139°46'6 5.9
2014-Sep-19 21:33N 35°22' E 139°50'1 0.5
2014-Sep-19 20:03N 35°22' E 139°51'0 0.0
2014-Sep-19 19:33N 35°22' E 139°51'0 0.0
2014-Sep-19 18:33N 35°22' E 139°51'0 0.0
2014-Sep-19 17:33N 35°22' E 139°51'0 0.0
2014-Sep-19 16:33N 35°22' E 139°51'0 0.0
2014-Sep-19 15:33N 35°22' E 139°51'0 0.0
2014-Sep-19 14:33N 35°22' E 139°51'0 0.0
2014-Sep-19 13:33N 35°22' E 139°51'0 0.0
2014-Sep-19 12:33N 35°22' E 139°51'0 0.0
2014-Sep-19 11:33N 35°22' E 139°51'0 0.0
2014-Sep-19 10:33N 35°22' E 139°51'0 0.0
2014-Sep-19 09:33N 35°22' E 139°51'0 0.0
2014-Sep-19 08:33N 35°22' E 139°51'0 0.2
2014-Sep-19 07:34N 35°22' E 139°50'8 8.2
2014-Sep-19 06:33N 35°29' E 139°54'4 3.7
2014-Sep-19 05:32N 35°27' E 139°58'0 0.0
2014-Sep-19 04:29N 35°27' E 139°58'0 0.0
2014-Sep-19 03:29N 35°27' E 139°58'0 0.0
2014-Sep-19 02:29N 35°27' E 139°58'0 0.0
2014-Sep-19 01:32N 35°27' E 139°58'0 0.0
2014-Sep-19 00:29N 35°27' E 139°58'0 0.0
2014-Sep-18 23:32N 35°27' E 139°58'0 0.0
2014-Sep-18 22:32N 35°27' E 139°58'0 0.0
2014-Sep-18 21:29N 35°27' E 139°58'0 0.0
2014-Sep-18 20:32N 35°27' E 139°58'0 0.0
2014-Sep-18 19:26N 35°27' E 139°58'0 0.0
2014-Sep-18 18:32N 35°27' E 139°58'0 0.0
2014-Sep-18 17:32N 35°27' E 139°58'0 0.0
2014-Sep-18 16:23N 35°27' E 139°58'0 0.0
2014-Sep-18 15:32N 35°27' E 139°58'0 0.0
2014-Sep-18 14:29N 35°27' E 139°58'0 0.0
2014-Sep-18 13:32N 35°27' E 139°58'0 0.0
2014-Sep-18 12:29N 35°27' E 139°58'0 0.0
2014-Sep-18 11:32N 35°27' E 139°58'0 0.0
2014-Sep-18 10:32N 35°27' E 139°58'0 0.0
2014-Sep-18 09:29N 35°27' E 139°58'0 0.0
2014-Sep-18 08:32N 35°27' E 139°58'0 0.0
2014-Sep-18 07:29N 35°27' E 139°58'0 0.0
2014-Sep-18 06:32N 35°27' E 139°58'0 0.0
2014-Sep-18 05:32N 35°27' E 139°58'0 0.0
2014-Sep-18 04:32N 35°27' E 139°58'2 1.8
2014-Sep-18 03:33N 35°29' E 139°57'3 3.4
2014-Sep-18 02:33N 35°28' E 139°53'9 8.8
2014-Sep-18 01:33N 35°26' E 139°43'2 1.5
2014-Sep-18 00:31N 35°26' E 139°41'0 0.0
2014-Sep-17 23:31N 35°26' E 139°41'0 0.0
2014-Sep-17 22:31N 35°26' E 139°41'1 0.5
2014-Sep-17 21:31N 35°25' E 139°42'0 0.0
2014-Sep-17 20:31N 35°25' E 139°42'0 0.0
2014-Sep-17 19:31N 35°25' E 139°42'0 0.0
2014-Sep-17 18:31N 35°25' E 139°42'0 0.0
2014-Sep-17 17:31N 35°25' E 139°42'0 0.0
2014-Sep-17 16:28N 35°25' E 139°42'0 0.0
2014-Sep-17 15:31N 35°25' E 139°42'0 0.0
2014-Sep-17 14:31N 35°25' E 139°42'0 0.0
2014-Sep-17 13:31N 35°25' E 139°42'0 0.0
2014-Sep-17 12:31N 35°25' E 139°42'0 0.0
2014-Sep-17 11:31N 35°25' E 139°42'0 0.0
2014-Sep-17 10:31N 35°25' E 139°42'0 0.0
2014-Sep-17 09:31N 35°25' E 139°42'4 4.0
2014-Sep-17 08:33N 35°22' E 139°43'1211.5
2014-Sep-17 07:33N 35°11' E 139°46'5 5.1
2014-Sep-17 06:34N 35°06' E 139°44'70 9.9
2014-Sep-16 23:27N 34°29' E 138°31'  
2014-Sep-13 05:25N 34°32' E 134°44'1314.2
2014-Sep-13 04:32N 34°37' E 134°58'1313.7
2014-Sep-13 03:33N 34°33' E 135°14'8 7.5
2014-Sep-13 02:28N 34°28' E 135°22'0 0.0
2014-Sep-13 01:28N 34°28' E 135°22'0 0.0
2014-Sep-13 00:28N 34°28' E 135°22'0 0.0
2014-Sep-12 23:28N 34°28' E 135°22'1 1.1
2014-Sep-12 22:33N 34°29' E 135°22'10 9.8
2014-Sep-12 21:33N 34°39' E 135°25'1 1.1
2014-Sep-12 20:16N 34°39' E 135°27'0 0.0
2014-Sep-12 19:22N 34°39' E 135°27'0 0.0
2014-Sep-12 18:28N 34°39' E 135°27'0 0.0
2014-Sep-12 17:22N 34°39' E 135°27'0 0.0
2014-Sep-12 16:28N 34°39' E 135°27'0 0.0
2014-Sep-12 15:28N 34°39' E 135°27'0 0.0
2014-Sep-12 14:22N 34°39' E 135°27'0 0.0
2014-Sep-12 13:28N 34°39' E 135°27'0 0.0
2014-Sep-12 12:22N 34°39' E 135°27'0 0.0
2014-Sep-12 11:34N 34°39' E 135°27'5 4.6
2014-Sep-12 10:33N 34°37' E 135°21'1211.6
2014-Sep-12 09:33N 34°35' E 135°08'1313.2
2014-Sep-12 08:33N 34°34' E 134°52'  
Track history (hours):
 
Tides and Currents Weather Stations Pressure Air Temp Water Temp Dewpoint Dewpoint Depression Visibility Wind Speed Wind Dir Waves Ship Positions

No1 Tokuyama

Last reported at 2014-Sep-21 16:29 UTC. Time now 2014-Sep-23 04:27 UTC.
Position N 33°50' E 132°23'.

Length 110 m; draft 5.4 m.

Type: Cargo ship. MMSI: 431400487.

Date/timePositionNaut miles runAvg speedWind from/ knotsBaromVisibWave heightAir tempDewpointWater temp
2014-Sep-21 16:29N 33°50' E 132°23'1614.9
2014-Sep-21 15:25N 33°56' E 132°40'10611.9
2014-Sep-21 06:33N 34°06' E 134°48'24912.2
2014-Sep-20 10:06N 35°06' E 139°41'814.1
2014-Sep-20 09:33N 35°12' E 139°46'1312.6
2014-Sep-20 08:34N 35°24' E 139°43'6 5.5
2014-Sep-20 07:33N 35°30' E 139°44'0 0.0
2014-Sep-20 06:32N 35°30' E 139°44'0 0.0
2014-Sep-20 05:32N 35°30' E 139°44'0 0.0
2014-Sep-20 04:32N 35°30' E 139°44'0 0.0
2014-Sep-20 03:32N 35°30' E 139°44'0 0.0
2014-Sep-20 02:32N 35°30' E 139°44'0 0.0
2014-Sep-20 01:32N 35°30' E 139°44'0 0.0
2014-Sep-20 00:32N 35°30' E 139°44'1 0.6
2014-Sep-19 23:33N 35°30' E 139°43'3 3.1
2014-Sep-19 22:33N 35°27' E 139°46'6 5.9
2014-Sep-19 21:33N 35°22' E 139°50'1 0.5
2014-Sep-19 20:03N 35°22' E 139°51'0 0.0
2014-Sep-19 19:33N 35°22' E 139°51'0 0.0
2014-Sep-19 18:33N 35°22' E 139°51'0 0.0
2014-Sep-19 17:33N 35°22' E 139°51'0 0.0
2014-Sep-19 16:33N 35°22' E 139°51'0 0.0
2014-Sep-19 15:33N 35°22' E 139°51'0 0.0
2014-Sep-19 14:33N 35°22' E 139°51'0 0.0
2014-Sep-19 13:33N 35°22' E 139°51'0 0.0
2014-Sep-19 12:33N 35°22' E 139°51'0 0.0
2014-Sep-19 11:33N 35°22' E 139°51'0 0.0
2014-Sep-19 10:33N 35°22' E 139°51'0 0.0
2014-Sep-19 09:33N 35°22' E 139°51'0 0.0
2014-Sep-19 08:33N 35°22' E 139°51'0 0.2
2014-Sep-19 07:34N 35°22' E 139°50'8 8.2
2014-Sep-19 06:33N 35°29' E 139°54'4 3.7
2014-Sep-19 05:32N 35°27' E 139°58'0 0.0
2014-Sep-19 04:29N 35°27' E 139°58'0 0.0
2014-Sep-19 03:29N 35°27' E 139°58'0 0.0
2014-Sep-19 02:29N 35°27' E 139°58'0 0.0
2014-Sep-19 01:32N 35°27' E 139°58'0 0.0
2014-Sep-19 00:29N 35°27' E 139°58'0 0.0
2014-Sep-18 23:32N 35°27' E 139°58'0 0.0
2014-Sep-18 22:32N 35°27' E 139°58'0 0.0
2014-Sep-18 21:29N 35°27' E 139°58'0 0.0
2014-Sep-18 20:32N 35°27' E 139°58'0 0.0
2014-Sep-18 19:26N 35°27' E 139°58'0 0.0
2014-Sep-18 18:32N 35°27' E 139°58'0 0.0
2014-Sep-18 17:32N 35°27' E 139°58'0 0.0
2014-Sep-18 16:23N 35°27' E 139°58'0 0.0
2014-Sep-18 15:32N 35°27' E 139°58'0 0.0
2014-Sep-18 14:29N 35°27' E 139°58'0 0.0
2014-Sep-18 13:32N 35°27' E 139°58'0 0.0
2014-Sep-18 12:29N 35°27' E 139°58'0 0.0
2014-Sep-18 11:32N 35°27' E 139°58'0 0.0
2014-Sep-18 10:32N 35°27' E 139°58'0 0.0
2014-Sep-18 09:29N 35°27' E 139°58'0 0.0
2014-Sep-18 08:32N 35°27' E 139°58'0 0.0
2014-Sep-18 07:29N 35°27' E 139°58'0 0.0
2014-Sep-18 06:32N 35°27' E 139°58'0 0.0
2014-Sep-18 05:32N 35°27' E 139°58'0 0.0
2014-Sep-18 04:32N 35°27' E 139°58'2 1.8
2014-Sep-18 03:33N 35°29' E 139°57'3 3.4
2014-Sep-18 02:33N 35°28' E 139°53'9 8.8
2014-Sep-18 01:33N 35°26' E 139°43'2 1.5
2014-Sep-18 00:31N 35°26' E 139°41'0 0.0
2014-Sep-17 23:31N 35°26' E 139°41'0 0.0
2014-Sep-17 22:31N 35°26' E 139°41'1 0.5
2014-Sep-17 21:31N 35°25' E 139°42'0 0.0
2014-Sep-17 20:31N 35°25' E 139°42'0 0.0
2014-Sep-17 19:31N 35°25' E 139°42'0 0.0
2014-Sep-17 18:31N 35°25' E 139°42'0 0.0
2014-Sep-17 17:31N 35°25' E 139°42'0 0.0
2014-Sep-17 16:28N 35°25' E 139°42'0 0.0
2014-Sep-17 15:31N 35°25' E 139°42'0 0.0
2014-Sep-17 14:31N 35°25' E 139°42'0 0.0
2014-Sep-17 13:31N 35°25' E 139°42'0 0.0
2014-Sep-17 12:31N 35°25' E 139°42'0 0.0
2014-Sep-17 11:31N 35°25' E 139°42'0 0.0
2014-Sep-17 10:31N 35°25' E 139°42'0 0.0
2014-Sep-17 09:31N 35°25' E 139°42'4 4.0
2014-Sep-17 08:33N 35°22' E 139°43'1211.5
2014-Sep-17 07:33N 35°11' E 139°46'5 5.1
2014-Sep-17 06:34N 35°06' E 139°44'70 9.9
2014-Sep-16 23:27N 34°29' E 138°31'  
2014-Sep-13 05:25N 34°32' E 134°44'1314.2
2014-Sep-13 04:32N 34°37' E 134°58'1313.7
2014-Sep-13 03:33N 34°33' E 135°14'8 7.5
2014-Sep-13 02:28N 34°28' E 135°22'0 0.0
2014-Sep-13 01:28N 34°28' E 135°22'0 0.0
2014-Sep-13 00:28N 34°28' E 135°22'0 0.0
2014-Sep-12 23:28N 34°28' E 135°22'1 1.1
2014-Sep-12 22:33N 34°29' E 135°22'10 9.8
2014-Sep-12 21:33N 34°39' E 135°25'1 1.1
2014-Sep-12 20:16N 34°39' E 135°27'0 0.0
2014-Sep-12 19:22N 34°39' E 135°27'0 0.0
2014-Sep-12 18:28N 34°39' E 135°27'0 0.0
2014-Sep-12 17:22N 34°39' E 135°27'0 0.0
2014-Sep-12 16:28N 34°39' E 135°27'0 0.0
2014-Sep-12 15:28N 34°39' E 135°27'0 0.0
2014-Sep-12 14:22N 34°39' E 135°27'0 0.0
2014-Sep-12 13:28N 34°39' E 135°27'0 0.0
2014-Sep-12 12:22N 34°39' E 135°27'0 0.0
2014-Sep-12 11:34N 34°39' E 135°27'5 4.6
2014-Sep-12 10:33N 34°37' E 135°21'1211.6
2014-Sep-12 09:33N 34°35' E 135°08'1313.2
2014-Sep-12 08:33N 34°34' E 134°52'  

Dump ship's entire track history